sensor_id;sensor_type;location;lat;lon;timestamp;P1;durP1;ratioP1;P2;durP2;ratioP2
60612;SDS011;46443;59.792;17.626;2023-11-21T00:00:15;3.00;;;1.75;;
60612;SDS011;46443;59.792;17.626;2023-11-21T00:02:41;2.03;;;1.50;;
60612;SDS011;46443;59.792;17.626;2023-11-21T00:05:08;1.93;;;1.50;;
60612;SDS011;46443;59.792;17.626;2023-11-21T00:07:35;2.10;;;1.70;;
60612;SDS011;46443;59.792;17.626;2023-11-21T00:10:01;2.60;;;1.60;;
60612;SDS011;46443;59.792;17.626;2023-11-21T00:12:28;2.23;;;1.50;;
60612;SDS011;46443;59.792;17.626;2023-11-21T00:14:54;1.70;;;1.40;;
60612;SDS011;46443;59.792;17.626;2023-11-21T00:17:20;2.00;;;1.40;;
60612;SDS011;46443;59.792;17.626;2023-11-21T00:19:46;1.90;;;1.40;;
60612;SDS011;46443;59.792;17.626;2023-11-21T00:22:12;2.47;;;1.60;;
60612;SDS011;46443;59.792;17.626;2023-11-21T00:24:38;2.03;;;1.50;;
60612;SDS011;46443;59.792;17.626;2023-11-21T00:27:04;1.67;;;1.40;;
60612;SDS011;46443;59.792;17.626;2023-11-21T00:29:31;2.93;;;1.60;;
60612;SDS011;46443;59.792;17.626;2023-11-21T00:31:57;1.70;;;1.60;;
60612;SDS011;46443;59.792;17.626;2023-11-21T00:34:23;2.80;;;1.63;;
60612;SDS011;46443;59.792;17.626;2023-11-21T00:36:49;2.37;;;1.50;;
60612;SDS011;46443;59.792;17.626;2023-11-21T00:39:15;2.67;;;1.57;;
60612;SDS011;46443;59.792;17.626;2023-11-21T00:41:41;2.27;;;1.50;;
60612;SDS011;46443;59.792;17.626;2023-11-21T00:44:09;2.13;;;1.50;;
60612;SDS011;46443;59.792;17.626;2023-11-21T00:46:35;1.90;;;1.47;;
60612;SDS011;46443;59.792;17.626;2023-11-21T00:49:02;2.07;;;1.43;;
60612;SDS011;46443;59.792;17.626;2023-11-21T00:51:31;1.40;;;1.20;;
60612;SDS011;46443;59.792;17.626;2023-11-21T00:53:57;2.03;;;1.40;;
60612;SDS011;46443;59.792;17.626;2023-11-21T00:56:23;1.77;;;1.47;;
60612;SDS011;46443;59.792;17.626;2023-11-21T00:58:49;1.87;;;1.37;;
60612;SDS011;46443;59.792;17.626;2023-11-21T01:01:17;1.97;;;1.43;;
60612;SDS011;46443;59.792;17.626;2023-11-21T01:03:45;2.00;;;1.40;;
60612;SDS011;46443;59.792;17.626;2023-11-21T01:06:11;1.90;;;1.40;;
60612;SDS011;46443;59.792;17.626;2023-11-21T01:08:37;1.83;;;1.50;;
60612;SDS011;46443;59.792;17.626;2023-11-21T01:11:03;1.97;;;1.27;;
60612;SDS011;46443;59.792;17.626;2023-11-21T01:13:32;2.40;;;1.40;;
60612;SDS011;46443;59.792;17.626;2023-11-21T01:15:58;1.73;;;1.40;;
60612;SDS011;46443;59.792;17.626;2023-11-21T01:18:24;2.23;;;1.53;;
60612;SDS011;46443;59.792;17.626;2023-11-21T01:20:50;1.70;;;1.33;;
60612;SDS011;46443;59.792;17.626;2023-11-21T01:23:18;2.70;;;1.40;;
60612;SDS011;46443;59.792;17.626;2023-11-21T01:25:44;2.20;;;1.30;;
60612;SDS011;46443;59.792;17.626;2023-11-21T01:28:10;2.17;;;1.30;;
60612;SDS011;46443;59.792;17.626;2023-11-21T01:30:37;2.10;;;1.40;;
60612;SDS011;46443;59.792;17.626;2023-11-21T01:33:03;2.23;;;1.60;;
60612;SDS011;46443;59.792;17.626;2023-11-21T01:35:29;2.40;;;1.57;;
60612;SDS011;46443;59.792;17.626;2023-11-21T01:37:55;2.33;;;1.70;;
60612;SDS011;46443;59.792;17.626;2023-11-21T01:40:21;1.93;;;1.47;;
60612;SDS011;46443;59.792;17.626;2023-11-21T01:42:47;3.80;;;1.60;;
60612;SDS011;46443;59.792;17.626;2023-11-21T01:45:13;2.50;;;1.73;;
60612;SDS011;46443;59.792;17.626;2023-11-21T01:47:40;2.37;;;1.70;;
60612;SDS011;46443;59.792;17.626;2023-11-21T01:50:09;1.63;;;1.50;;
60612;SDS011;46443;59.792;17.626;2023-11-21T01:52:39;2.07;;;1.47;;
60612;SDS011;46443;59.792;17.626;2023-11-21T01:55:06;2.17;;;1.50;;
60612;SDS011;46443;59.792;17.626;2023-11-21T01:57:37;2.40;;;1.60;;
60612;SDS011;46443;59.792;17.626;2023-11-21T02:00:03;2.27;;;1.50;;
60612;SDS011;46443;59.792;17.626;2023-11-21T02:02:49;1.92;;;1.45;;
60612;SDS011;46443;59.792;17.626;2023-11-21T02:05:15;3.10;;;1.90;;
60612;SDS011;46443;59.792;17.626;2023-11-21T02:07:45;3.42;;;1.90;;
60612;SDS011;46443;59.792;17.626;2023-11-21T02:10:15;2.90;;;1.70;;
60612;SDS011;46443;59.792;17.626;2023-11-21T02:12:42;3.03;;;1.70;;
60612;SDS011;46443;59.792;17.626;2023-11-21T02:15:08;3.13;;;1.63;;
60612;SDS011;46443;59.792;17.626;2023-11-21T02:17:41;2.55;;;1.63;;
60612;SDS011;46443;59.792;17.626;2023-11-21T02:20:09;4.25;;;1.67;;
60612;SDS011;46443;59.792;17.626;2023-11-21T02:22:40;2.50;;;1.80;;
60612;SDS011;46443;59.792;17.626;2023-11-21T02:25:07;3.13;;;2.10;;
60612;SDS011;46443;59.792;17.626;2023-11-21T02:27:33;3.22;;;2.00;;
60612;SDS011;46443;59.792;17.626;2023-11-21T02:29:59;2.97;;;1.97;;
60612;SDS011;46443;59.792;17.626;2023-11-21T02:32:26;3.47;;;1.98;;
60612;SDS011;46443;59.792;17.626;2023-11-21T02:34:52;3.78;;;2.28;;
60612;SDS011;46443;59.792;17.626;2023-11-21T02:37:25;2.70;;;1.90;;
60612;SDS011;46443;59.792;17.626;2023-11-21T02:39:51;3.50;;;1.67;;
60612;SDS011;46443;59.792;17.626;2023-11-21T02:42:18;3.33;;;2.20;;
60612;SDS011;46443;59.792;17.626;2023-11-21T02:44:44;3.23;;;1.93;;
60612;SDS011;46443;59.792;17.626;2023-11-21T02:47:10;4.03;;;2.22;;
60612;SDS011;46443;59.792;17.626;2023-11-21T02:49:36;3.17;;;2.07;;
60612;SDS011;46443;59.792;17.626;2023-11-21T02:52:02;3.70;;;2.00;;
60612;SDS011;46443;59.792;17.626;2023-11-21T02:54:28;3.78;;;2.08;;
60612;SDS011;46443;59.792;17.626;2023-11-21T02:56:54;3.10;;;1.98;;
60612;SDS011;46443;59.792;17.626;2023-11-21T02:59:20;4.05;;;2.33;;
60612;SDS011;46443;59.792;17.626;2023-11-21T03:01:46;4.20;;;2.40;;
60612;SDS011;46443;59.792;17.626;2023-11-21T03:04:14;3.03;;;2.00;;
60612;SDS011;46443;59.792;17.626;2023-11-21T03:06:43;4.22;;;2.33;;
60612;SDS011;46443;59.792;17.626;2023-11-21T03:09:09;4.93;;;2.50;;
60612;SDS011;46443;59.792;17.626;2023-11-21T03:11:37;3.42;;;2.10;;
60612;SDS011;46443;59.792;17.626;2023-11-21T03:14:03;4.00;;;2.28;;
60612;SDS011;46443;59.792;17.626;2023-11-21T03:16:30;3.53;;;2.45;;
60612;SDS011;46443;59.792;17.626;2023-11-21T03:18:56;3.03;;;2.00;;
60612;SDS011;46443;59.792;17.626;2023-11-21T03:21:22;3.78;;;2.40;;
60612;SDS011;46443;59.792;17.626;2023-11-21T03:23:48;4.45;;;2.42;;
60612;SDS011;46443;59.792;17.626;2023-11-21T03:26:14;6.50;;;2.53;;
60612;SDS011;46443;59.792;17.626;2023-11-21T03:28:41;3.65;;;2.50;;
60612;SDS011;46443;59.792;17.626;2023-11-21T03:31:07;4.35;;;2.53;;
60612;SDS011;46443;59.792;17.626;2023-11-21T03:33:36;4.00;;;2.42;;
60612;SDS011;46443;59.792;17.626;2023-11-21T03:36:03;5.47;;;2.58;;
60612;SDS011;46443;59.792;17.626;2023-11-21T03:38:29;3.88;;;2.20;;
60612;SDS011;46443;59.792;17.626;2023-11-21T03:40:55;4.00;;;2.45;;
60612;SDS011;46443;59.792;17.626;2023-11-21T03:43:21;4.55;;;2.83;;
60612;SDS011;46443;59.792;17.626;2023-11-21T03:45:47;5.10;;;2.80;;
60612;SDS011;46443;59.792;17.626;2023-11-21T03:48:13;7.28;;;3.10;;
60612;SDS011;46443;59.792;17.626;2023-11-21T03:50:39;3.88;;;2.53;;
60612;SDS011;46443;59.792;17.626;2023-11-21T03:53:05;4.72;;;2.90;;
60612;SDS011;46443;59.792;17.626;2023-11-21T03:55:31;4.90;;;2.95;;
60612;SDS011;46443;59.792;17.626;2023-11-21T03:57:58;4.47;;;2.83;;
60612;SDS011;46443;59.792;17.626;2023-11-21T04:00:24;4.88;;;2.92;;
60612;SDS011;46443;59.792;17.626;2023-11-21T04:02:53;3.83;;;2.38;;
60612;SDS011;46443;59.792;17.626;2023-11-21T04:05:20;4.03;;;2.50;;
60612;SDS011;46443;59.792;17.626;2023-11-21T04:07:48;5.80;;;2.95;;
60612;SDS011;46443;59.792;17.626;2023-11-21T04:10:14;4.32;;;2.78;;
60612;SDS011;46443;59.792;17.626;2023-11-21T04:12:40;5.85;;;3.38;;
60612;SDS011;46443;59.792;17.626;2023-11-21T04:15:07;5.00;;;3.00;;
60612;SDS011;46443;59.792;17.626;2023-11-21T04:17:37;4.53;;;2.90;;
60612;SDS011;46443;59.792;17.626;2023-11-21T04:20:04;5.90;;;3.08;;
60612;SDS011;46443;59.792;17.626;2023-11-21T04:24:59;5.20;;;2.80;;
60612;SDS011;46443;59.792;17.626;2023-11-21T04:27:26;4.60;;;2.70;;
60612;SDS011;46443;59.792;17.626;2023-11-21T04:29:52;4.85;;;2.83;;
60612;SDS011;46443;59.792;17.626;2023-11-21T04:32:18;4.45;;;2.88;;
60612;SDS011;46443;59.792;17.626;2023-11-21T04:34:44;4.28;;;2.72;;
60612;SDS011;46443;59.792;17.626;2023-11-21T04:37:10;4.28;;;2.38;;
60612;SDS011;46443;59.792;17.626;2023-11-21T04:39:36;4.88;;;2.92;;
60612;SDS011;46443;59.792;17.626;2023-11-21T04:42:03;5.05;;;2.80;;
60612;SDS011;46443;59.792;17.626;2023-11-21T04:44:29;5.47;;;3.50;;
60612;SDS011;46443;59.792;17.626;2023-11-21T04:46:55;4.63;;;2.83;;
60612;SDS011;46443;59.792;17.626;2023-11-21T04:49:21;4.93;;;3.10;;
60612;SDS011;46443;59.792;17.626;2023-11-21T04:51:47;4.88;;;2.50;;
60612;SDS011;46443;59.792;17.626;2023-11-21T04:54:13;6.60;;;3.00;;
60612;SDS011;46443;59.792;17.626;2023-11-21T04:56:39;5.35;;;3.00;;
60612;SDS011;46443;59.792;17.626;2023-11-21T04:59:05;4.70;;;2.83;;
60612;SDS011;46443;59.792;17.626;2023-11-21T05:01:31;4.80;;;2.88;;
60612;SDS011;46443;59.792;17.626;2023-11-21T05:03:57;4.45;;;2.40;;
60612;SDS011;46443;59.792;17.626;2023-11-21T05:06:23;4.78;;;3.10;;
60612;SDS011;46443;59.792;17.626;2023-11-21T05:08:49;6.72;;;2.80;;
60612;SDS011;46443;59.792;17.626;2023-11-21T05:11:37;4.30;;;2.85;;
60612;SDS011;46443;59.792;17.626;2023-11-21T05:14:02;5.28;;;3.30;;
60612;SDS011;46443;59.792;17.626;2023-11-21T05:16:29;4.88;;;2.70;;
60612;SDS011;46443;59.792;17.626;2023-11-21T05:18:55;4.10;;;2.60;;
60612;SDS011;46443;59.792;17.626;2023-11-21T05:21:26;6.30;;;2.80;;
60612;SDS011;46443;59.792;17.626;2023-11-21T05:23:52;4.60;;;2.72;;
60612;SDS011;46443;59.792;17.626;2023-11-21T05:26:18;4.70;;;2.90;;
60612;SDS011;46443;59.792;17.626;2023-11-21T05:28:44;5.53;;;2.60;;
60612;SDS011;46443;59.792;17.626;2023-11-21T05:31:10;4.35;;;2.92;;
60612;SDS011;46443;59.792;17.626;2023-11-21T05:33:36;4.53;;;2.83;;
60612;SDS011;46443;59.792;17.626;2023-11-21T05:36:02;5.40;;;2.85;;
60612;SDS011;46443;59.792;17.626;2023-11-21T05:38:28;7.25;;;3.22;;
60612;SDS011;46443;59.792;17.626;2023-11-21T05:40:54;7.97;;;3.40;;
60612;SDS011;46443;59.792;17.626;2023-11-21T05:43:20;7.18;;;3.38;;
60612;SDS011;46443;59.792;17.626;2023-11-21T05:45:46;6.68;;;3.25;;
60612;SDS011;46443;59.792;17.626;2023-11-21T05:48:12;9.00;;;3.92;;
60612;SDS011;46443;59.792;17.626;2023-11-21T05:50:38;5.38;;;3.35;;
60612;SDS011;46443;59.792;17.626;2023-11-21T05:53:04;5.03;;;2.85;;
60612;SDS011;46443;59.792;17.626;2023-11-21T05:55:30;5.80;;;3.30;;
60612;SDS011;46443;59.792;17.626;2023-11-21T05:57:57;6.25;;;3.25;;
60612;SDS011;46443;59.792;17.626;2023-11-21T06:00:23;6.68;;;3.67;;
60612;SDS011;46443;59.792;17.626;2023-11-21T06:02:50;4.97;;;3.00;;
60612;SDS011;46443;59.792;17.626;2023-11-21T06:05:20;4.45;;;2.72;;
60612;SDS011;46443;59.792;17.626;2023-11-21T06:07:48;6.00;;;3.22;;
60612;SDS011;46443;59.792;17.626;2023-11-21T06:10:14;5.13;;;3.00;;
60612;SDS011;46443;59.792;17.626;2023-11-21T06:12:43;7.20;;;4.40;;
60612;SDS011;46443;59.792;17.626;2023-11-21T06:15:09;6.20;;;3.17;;
60612;SDS011;46443;59.792;17.626;2023-11-21T06:17:38;5.38;;;3.20;;
60612;SDS011;46443;59.792;17.626;2023-11-21T06:20:08;6.70;;;3.75;;
60612;SDS011;46443;59.792;17.626;2023-11-21T06:22:36;5.85;;;3.75;;
60612;SDS011;46443;59.792;17.626;2023-11-21T06:25:02;6.35;;;3.60;;
60612;SDS011;46443;59.792;17.626;2023-11-21T06:29:59;8.55;;;3.55;;
60612;SDS011;46443;59.792;17.626;2023-11-21T06:32:25;5.78;;;3.35;;
60612;SDS011;46443;59.792;17.626;2023-11-21T06:34:51;4.82;;;3.00;;
60612;SDS011;46443;59.792;17.626;2023-11-21T06:37:20;6.03;;;3.45;;
60612;SDS011;46443;59.792;17.626;2023-11-21T06:39:48;5.35;;;3.33;;
60612;SDS011;46443;59.792;17.626;2023-11-21T06:42:17;5.85;;;3.17;;
60612;SDS011;46443;59.792;17.626;2023-11-21T06:44:44;5.45;;;3.70;;
60612;SDS011;46443;59.792;17.626;2023-11-21T06:47:10;6.28;;;3.80;;
60612;SDS011;46443;59.792;17.626;2023-11-21T06:49:36;7.03;;;3.40;;
60612;SDS011;46443;59.792;17.626;2023-11-21T06:52:03;7.45;;;3.83;;
60612;SDS011;46443;59.792;17.626;2023-11-21T06:54:33;7.05;;;3.88;;
60612;SDS011;46443;59.792;17.626;2023-11-21T06:56:59;9.50;;;3.92;;
60612;SDS011;46443;59.792;17.626;2023-11-21T06:59:25;6.70;;;3.80;;
60612;SDS011;46443;59.792;17.626;2023-11-21T07:01:51;7.82;;;4.25;;
60612;SDS011;46443;59.792;17.626;2023-11-21T07:04:17;7.30;;;3.97;;
60612;SDS011;46443;59.792;17.626;2023-11-21T07:06:43;6.00;;;3.70;;
60612;SDS011;46443;59.792;17.626;2023-11-21T07:09:09;8.95;;;4.07;;
60612;SDS011;46443;59.792;17.626;2023-11-21T07:11:36;8.80;;;4.25;;
60612;SDS011;46443;59.792;17.626;2023-11-21T07:14:05;7.77;;;4.50;;
60612;SDS011;46443;59.792;17.626;2023-11-21T07:16:35;10.48;;;4.22;;
60612;SDS011;46443;59.792;17.626;2023-11-21T07:19:03;6.55;;;3.58;;
60612;SDS011;46443;59.792;17.626;2023-11-21T07:21:33;7.80;;;4.00;;
60612;SDS011;46443;59.792;17.626;2023-11-21T07:24:03;8.23;;;4.35;;
60612;SDS011;46443;59.792;17.626;2023-11-21T07:28:55;8.83;;;4.40;;
60612;SDS011;46443;59.792;17.626;2023-11-21T07:31:21;9.75;;;4.82;;
60612;SDS011;46443;59.792;17.626;2023-11-21T07:33:49;13.05;;;4.65;;
60612;SDS011;46443;59.792;17.626;2023-11-21T07:36:15;8.48;;;4.72;;
60612;SDS011;46443;59.792;17.626;2023-11-21T07:38:43;9.15;;;4.47;;
60612;SDS011;46443;59.792;17.626;2023-11-21T07:41:09;10.38;;;4.90;;
60612;SDS011;46443;59.792;17.626;2023-11-21T07:43:36;8.82;;;4.78;;
60612;SDS011;46443;59.792;17.626;2023-11-21T07:46:02;9.02;;;4.53;;
60612;SDS011;46443;59.792;17.626;2023-11-21T07:48:31;10.65;;;4.45;;
60612;SDS011;46443;59.792;17.626;2023-11-21T07:50:57;11.45;;;5.35;;
60612;SDS011;46443;59.792;17.626;2023-11-21T07:53:26;9.60;;;5.07;;
60612;SDS011;46443;59.792;17.626;2023-11-21T07:55:55;6.72;;;4.03;;
60612;SDS011;46443;59.792;17.626;2023-11-21T07:58:21;11.57;;;4.38;;
60612;SDS011;46443;59.792;17.626;2023-11-21T08:00:47;10.13;;;5.20;;
60612;SDS011;46443;59.792;17.626;2023-11-21T08:03:13;13.00;;;5.80;;
60612;SDS011;46443;59.792;17.626;2023-11-21T08:05:39;9.32;;;4.82;;
60612;SDS011;46443;59.792;17.626;2023-11-21T08:08:05;8.43;;;4.22;;
60612;SDS011;46443;59.792;17.626;2023-11-21T08:10:31;9.85;;;4.75;;
60612;SDS011;46443;59.792;17.626;2023-11-21T08:12:57;11.48;;;5.00;;
60612;SDS011;46443;59.792;17.626;2023-11-21T08:15:24;11.68;;;5.50;;
60612;SDS011;46443;59.792;17.626;2023-11-21T08:17:50;8.80;;;4.65;;
60612;SDS011;46443;59.792;17.626;2023-11-21T08:20:16;10.25;;;5.60;;
60612;SDS011;46443;59.792;17.626;2023-11-21T08:22:43;9.10;;;4.40;;
60612;SDS011;46443;59.792;17.626;2023-11-21T08:25:09;13.55;;;5.97;;
60612;SDS011;46443;59.792;17.626;2023-11-21T08:27:35;13.07;;;5.60;;
60612;SDS011;46443;59.792;17.626;2023-11-21T08:30:05;11.10;;;5.38;;
60612;SDS011;46443;59.792;17.626;2023-11-21T08:32:32;10.70;;;5.28;;
60612;SDS011;46443;59.792;17.626;2023-11-21T08:34:58;14.13;;;6.10;;
60612;SDS011;46443;59.792;17.626;2023-11-21T08:37:25;14.10;;;6.20;;
60612;SDS011;46443;59.792;17.626;2023-11-21T08:39:52;10.77;;;5.28;;
60612;SDS011;46443;59.792;17.626;2023-11-21T08:42:18;14.93;;;5.82;;
60612;SDS011;46443;59.792;17.626;2023-11-21T08:44:45;8.68;;;4.95;;
60612;SDS011;46443;59.792;17.626;2023-11-21T08:47:11;10.20;;;4.95;;
60612;SDS011;46443;59.792;17.626;2023-11-21T08:49:37;11.45;;;5.30;;
60612;SDS011;46443;59.792;17.626;2023-11-21T08:52:03;12.10;;;5.47;;
60612;SDS011;46443;59.792;17.626;2023-11-21T08:54:30;11.35;;;4.75;;
60612;SDS011;46443;59.792;17.626;2023-11-21T08:56:56;11.35;;;5.20;;
60612;SDS011;46443;59.792;17.626;2023-11-21T08:59:25;15.43;;;6.38;;
60612;SDS011;46443;59.792;17.626;2023-11-21T09:01:52;13.98;;;5.80;;
60612;SDS011;46443;59.792;17.626;2023-11-21T09:04:18;12.00;;;5.53;;
60612;SDS011;46443;59.792;17.626;2023-11-21T09:06:44;10.68;;;5.20;;
60612;SDS011;46443;59.792;17.626;2023-11-21T09:09:10;10.27;;;5.22;;
60612;SDS011;46443;59.792;17.626;2023-11-21T09:11:36;11.75;;;5.57;;
60612;SDS011;46443;59.792;17.626;2023-11-21T09:14:03;11.05;;;5.15;;
60612;SDS011;46443;59.792;17.626;2023-11-21T09:16:29;14.48;;;7.32;;
60612;SDS011;46443;59.792;17.626;2023-11-21T09:18:55;10.68;;;5.70;;
60612;SDS011;46443;59.792;17.626;2023-11-21T09:21:21;13.07;;;5.60;;
60612;SDS011;46443;59.792;17.626;2023-11-21T09:23:48;13.18;;;6.13;;
60612;SDS011;46443;59.792;17.626;2023-11-21T09:26:14;14.63;;;6.13;;
60612;SDS011;46443;59.792;17.626;2023-11-21T09:28:41;14.63;;;6.82;;
60612;SDS011;46443;59.792;17.626;2023-11-21T09:31:11;10.95;;;5.47;;
60612;SDS011;46443;59.792;17.626;2023-11-21T09:33:37;12.55;;;5.60;;
60612;SDS011;46443;59.792;17.626;2023-11-21T09:36:04;12.73;;;5.60;;
60612;SDS011;46443;59.792;17.626;2023-11-21T09:38:30;10.80;;;5.40;;
60612;SDS011;46443;59.792;17.626;2023-11-21T09:40:57;9.85;;;4.78;;
60612;SDS011;46443;59.792;17.626;2023-11-21T09:43:23;11.38;;;5.03;;
60612;SDS011;46443;59.792;17.626;2023-11-21T09:45:56;10.70;;;5.07;;
60612;SDS011;46443;59.792;17.626;2023-11-21T09:48:25;8.75;;;5.25;;
60612;SDS011;46443;59.792;17.626;2023-11-21T09:50:51;8.32;;;4.32;;
60612;SDS011;46443;59.792;17.626;2023-11-21T09:55:50;8.68;;;4.88;;
60612;SDS011;46443;59.792;17.626;2023-11-21T09:58:17;9.52;;;4.72;;
60612;SDS011;46443;59.792;17.626;2023-11-21T10:00:47;11.20;;;5.40;;
60612;SDS011;46443;59.792;17.626;2023-11-21T10:03:13;11.63;;;5.32;;
60612;SDS011;46443;59.792;17.626;2023-11-21T10:05:40;11.90;;;5.22;;
60612;SDS011;46443;59.792;17.626;2023-11-21T10:08:08;8.50;;;4.20;;
60612;SDS011;46443;59.792;17.626;2023-11-21T10:10:37;9.50;;;4.72;;
60612;SDS011;46443;59.792;17.626;2023-11-21T10:13:06;9.02;;;5.47;;
60612;SDS011;46443;59.792;17.626;2023-11-21T10:15:35;9.82;;;5.30;;
60612;SDS011;46443;59.792;17.626;2023-11-21T10:18:05;8.13;;;4.57;;
60612;SDS011;46443;59.792;17.626;2023-11-21T10:20:33;9.07;;;5.05;;
60612;SDS011;46443;59.792;17.626;2023-11-21T10:22:59;11.50;;;5.78;;
60612;SDS011;46443;59.792;17.626;2023-11-21T10:27:59;7.17;;;4.27;;
60612;SDS011;46443;59.792;17.626;2023-11-21T10:33:02;7.32;;;4.50;;
60612;SDS011;46443;59.792;17.626;2023-11-21T10:35:47;8.45;;;4.75;;
60612;SDS011;46443;59.792;17.626;2023-11-21T10:38:18;8.77;;;4.47;;
60612;SDS011;46443;59.792;17.626;2023-11-21T10:40:47;10.57;;;5.22;;
60612;SDS011;46443;59.792;17.626;2023-11-21T10:43:14;9.07;;;4.72;;
60612;SDS011;46443;59.792;17.626;2023-11-21T10:45:41;10.63;;;4.93;;
60612;SDS011;46443;59.792;17.626;2023-11-21T10:48:07;9.43;;;4.55;;
60612;SDS011;46443;59.792;17.626;2023-11-21T10:50:35;8.60;;;4.60;;
60612;SDS011;46443;59.792;17.626;2023-11-21T10:53:05;8.63;;;4.97;;
60612;SDS011;46443;59.792;17.626;2023-11-21T10:55:32;10.88;;;5.10;;
60612;SDS011;46443;59.792;17.626;2023-11-21T10:57:59;10.73;;;5.00;;
60612;SDS011;46443;59.792;17.626;2023-11-21T11:00:27;9.38;;;4.57;;
60612;SDS011;46443;59.792;17.626;2023-11-21T11:02:54;8.73;;;4.65;;
60612;SDS011;46443;59.792;17.626;2023-11-21T11:05:21;8.85;;;4.50;;
60612;SDS011;46443;59.792;17.626;2023-11-21T11:07:50;9.23;;;4.50;;
60612;SDS011;46443;59.792;17.626;2023-11-21T11:10:24;10.00;;;5.38;;
60612;SDS011;46443;59.792;17.626;2023-11-21T11:12:52;9.38;;;4.60;;
60612;SDS011;46443;59.792;17.626;2023-11-21T11:15:19;9.23;;;5.15;;
60612;SDS011;46443;59.792;17.626;2023-11-21T11:17:45;9.55;;;4.82;;
60612;SDS011;46443;59.792;17.626;2023-11-21T11:20:12;9.18;;;4.95;;
60612;SDS011;46443;59.792;17.626;2023-11-21T11:25:45;9.85;;;5.15;;
60612;SDS011;46443;59.792;17.626;2023-11-21T11:28:20;9.32;;;5.05;;
60612;SDS011;46443;59.792;17.626;2023-11-21T11:38:30;9.63;;;4.53;;
60612;SDS011;46443;59.792;17.626;2023-11-21T11:40:59;9.02;;;4.75;;
60612;SDS011;46443;59.792;17.626;2023-11-21T11:43:28;8.25;;;4.60;;
60612;SDS011;46443;59.792;17.626;2023-11-21T11:45:57;8.93;;;4.65;;
60612;SDS011;46443;59.792;17.626;2023-11-21T11:48:24;10.77;;;4.68;;
60612;SDS011;46443;59.792;17.626;2023-11-21T11:51:00;7.82;;;4.15;;
60612;SDS011;46443;59.792;17.626;2023-11-21T11:53:28;8.70;;;4.60;;
60612;SDS011;46443;59.792;17.626;2023-11-21T11:58:24;7.37;;;3.83;;
60612;SDS011;46443;59.792;17.626;2023-11-21T12:01:06;8.43;;;4.25;;
60612;SDS011;46443;59.792;17.626;2023-11-21T12:03:32;8.80;;;4.10;;
60612;SDS011;46443;59.792;17.626;2023-11-21T12:05:58;8.30;;;4.30;;
60612;SDS011;46443;59.792;17.626;2023-11-21T12:08:24;7.28;;;4.10;;
60612;SDS011;46443;59.792;17.626;2023-11-21T12:10:56;10.65;;;4.65;;
60612;SDS011;46443;59.792;17.626;2023-11-21T12:13:23;10.48;;;4.15;;
60612;SDS011;46443;59.792;17.626;2023-11-21T12:15:49;11.10;;;5.10;;
60612;SDS011;46443;59.792;17.626;2023-11-21T12:18:15;8.05;;;3.95;;
60612;SDS011;46443;59.792;17.626;2023-11-21T12:20:41;8.43;;;4.28;;
60612;SDS011;46443;59.792;17.626;2023-11-21T12:23:11;7.95;;;3.95;;
60612;SDS011;46443;59.792;17.626;2023-11-21T12:25:40;8.10;;;4.25;;
60612;SDS011;46443;59.792;17.626;2023-11-21T12:28:07;9.38;;;4.55;;
60612;SDS011;46443;59.792;17.626;2023-11-21T12:30:34;9.68;;;3.78;;
60612;SDS011;46443;59.792;17.626;2023-11-21T12:33:01;9.38;;;3.80;;
60612;SDS011;46443;59.792;17.626;2023-11-21T12:35:27;8.38;;;4.05;;
60612;SDS011;46443;59.792;17.626;2023-11-21T12:37:55;6.45;;;3.80;;
60612;SDS011;46443;59.792;17.626;2023-11-21T12:40:25;6.95;;;3.80;;
60612;SDS011;46443;59.792;17.626;2023-11-21T12:42:52;11.13;;;4.55;;
60612;SDS011;46443;59.792;17.626;2023-11-21T12:47:49;14.13;;;6.47;;
60612;SDS011;46443;59.792;17.626;2023-11-21T12:50:18;12.38;;;5.07;;
60612;SDS011;46443;59.792;17.626;2023-11-21T12:52:46;13.38;;;6.93;;
60612;SDS011;46443;59.792;17.626;2023-11-21T12:55:13;14.02;;;5.90;;
60612;SDS011;46443;59.792;17.626;2023-11-21T12:57:43;11.30;;;5.07;;
60612;SDS011;46443;59.792;17.626;2023-11-21T13:00:10;17.35;;;6.15;;
60612;SDS011;46443;59.792;17.626;2023-11-21T13:02:40;10.25;;;4.50;;
60612;SDS011;46443;59.792;17.626;2023-11-21T13:05:07;13.98;;;5.53;;
60612;SDS011;46443;59.792;17.626;2023-11-21T13:07:43;9.77;;;5.22;;
60612;SDS011;46443;59.792;17.626;2023-11-21T13:10:13;10.98;;;4.15;;
60612;SDS011;46443;59.792;17.626;2023-11-21T13:12:43;8.20;;;4.60;;
60612;SDS011;46443;59.792;17.626;2023-11-21T13:15:13;9.48;;;4.30;;
60612;SDS011;46443;59.792;17.626;2023-11-21T13:17:42;9.98;;;4.00;;
60612;SDS011;46443;59.792;17.626;2023-11-21T13:20:09;8.35;;;4.32;;
60612;SDS011;46443;59.792;17.626;2023-11-21T13:22:44;9.00;;;5.13;;
60612;SDS011;46443;59.792;17.626;2023-11-21T13:25:10;12.07;;;4.30;;
60612;SDS011;46443;59.792;17.626;2023-11-21T13:27:39;9.23;;;4.57;;
60612;SDS011;46443;59.792;17.626;2023-11-21T13:30:08;8.30;;;4.00;;
60612;SDS011;46443;59.792;17.626;2023-11-21T13:32:34;8.50;;;4.00;;
60612;SDS011;46443;59.792;17.626;2023-11-21T13:35:00;6.43;;;3.90;;
60612;SDS011;46443;59.792;17.626;2023-11-21T13:37:26;8.85;;;4.20;;
60612;SDS011;46443;59.792;17.626;2023-11-21T13:39:53;8.40;;;3.88;;
60612;SDS011;46443;59.792;17.626;2023-11-21T13:42:21;10.98;;;4.47;;
60612;SDS011;46443;59.792;17.626;2023-11-21T13:44:55;6.75;;;3.30;;
60612;SDS011;46443;59.792;17.626;2023-11-21T13:47:21;9.57;;;4.28;;
60612;SDS011;46443;59.792;17.626;2023-11-21T13:49:50;9.27;;;4.32;;
60612;SDS011;46443;59.792;17.626;2023-11-21T13:52:17;10.27;;;4.32;;
60612;SDS011;46443;59.792;17.626;2023-11-21T13:54:46;11.38;;;4.22;;
60612;SDS011;46443;59.792;17.626;2023-11-21T13:57:12;6.88;;;3.80;;
60612;SDS011;46443;59.792;17.626;2023-11-21T13:59:38;7.13;;;3.38;;
60612;SDS011;46443;59.792;17.626;2023-11-21T14:02:04;5.97;;;3.17;;
60612;SDS011;46443;59.792;17.626;2023-11-21T14:04:44;7.85;;;3.55;;
60612;SDS011;46443;59.792;17.626;2023-11-21T14:07:21;7.15;;;3.67;;
60612;SDS011;46443;59.792;17.626;2023-11-21T14:10:13;12.35;;;4.13;;
60612;SDS011;46443;59.792;17.626;2023-11-21T14:12:41;9.00;;;3.85;;
60612;SDS011;46443;59.792;17.626;2023-11-21T14:15:07;8.30;;;3.80;;
60612;SDS011;46443;59.792;17.626;2023-11-21T14:17:35;6.20;;;3.28;;
60612;SDS011;46443;59.792;17.626;2023-11-21T14:20:03;7.60;;;3.80;;
60612;SDS011;46443;59.792;17.626;2023-11-21T14:22:30;7.63;;;3.67;;
60612;SDS011;46443;59.792;17.626;2023-11-21T14:24:56;7.95;;;3.88;;
60612;SDS011;46443;59.792;17.626;2023-11-21T14:27:25;8.13;;;4.07;;
60612;SDS011;46443;59.792;17.626;2023-11-21T14:29:51;8.43;;;4.07;;
60612;SDS011;46443;59.792;17.626;2023-11-21T14:32:17;5.82;;;3.20;;
60612;SDS011;46443;59.792;17.626;2023-11-21T14:34:43;6.72;;;3.10;;
60612;SDS011;46443;59.792;17.626;2023-11-21T14:37:12;6.18;;;3.45;;
60612;SDS011;46443;59.792;17.626;2023-11-21T14:39:39;6.93;;;3.78;;
60612;SDS011;46443;59.792;17.626;2023-11-21T14:42:09;4.72;;;3.10;;
60612;SDS011;46443;59.792;17.626;2023-11-21T14:44:35;6.60;;;2.95;;
60612;SDS011;46443;59.792;17.626;2023-11-21T14:47:06;6.72;;;3.30;;
60612;SDS011;46443;59.792;17.626;2023-11-21T14:49:40;7.45;;;3.30;;
60612;SDS011;46443;59.792;17.626;2023-11-21T14:52:17;6.90;;;3.67;;
60612;SDS011;46443;59.792;17.626;2023-11-21T14:54:59;6.40;;;3.53;;
60612;SDS011;46443;59.792;17.626;2023-11-21T14:57:44;6.30;;;3.10;;
60612;SDS011;46443;59.792;17.626;2023-11-21T15:00:15;7.82;;;3.65;;
60612;SDS011;46443;59.792;17.626;2023-11-21T15:03:01;7.07;;;3.00;;